sensor_id;sensor_type;location;lat;lon;timestamp;P1;durP1;ratioP1;P2;durP2;ratioP2
42632;SDS011;28261;53.304;-6.284;2023-10-19T00:00:03;23.30;;;11.25;;
42632;SDS011;28261;53.304;-6.284;2023-10-19T00:02:21;26.08;;;10.30;;
42632;SDS011;28261;53.304;-6.284;2023-10-19T00:04:25;21.33;;;9.85;;
42632;SDS011;28261;53.304;-6.284;2023-10-19T00:06:28;19.88;;;8.25;;
42632;SDS011;28261;53.304;-6.284;2023-10-19T00:08:34;22.85;;;8.38;;
42632;SDS011;28261;53.304;-6.284;2023-10-19T00:10:43;25.50;;;9.75;;
42632;SDS011;28261;53.304;-6.284;2023-10-19T00:12:50;29.45;;;10.88;;
42632;SDS011;28261;53.304;-6.284;2023-10-19T00:15:02;25.77;;;11.13;;
42632;SDS011;28261;53.304;-6.284;2023-10-19T00:19:13;23.42;;;10.90;;
42632;SDS011;28261;53.304;-6.284;2023-10-19T00:21:21;23.73;;;10.68;;
42632;SDS011;28261;53.304;-6.284;2023-10-19T00:23:25;23.70;;;11.40;;
42632;SDS011;28261;53.304;-6.284;2023-10-19T00:25:34;22.88;;;10.95;;
42632;SDS011;28261;53.304;-6.284;2023-10-19T00:27:37;27.55;;;12.38;;
42632;SDS011;28261;53.304;-6.284;2023-10-19T00:29:41;24.27;;;10.38;;
42632;SDS011;28261;53.304;-6.284;2023-10-19T00:31:50;26.20;;;13.15;;
42632;SDS011;28261;53.304;-6.284;2023-10-19T00:33:54;28.70;;;11.95;;
42632;SDS011;28261;53.304;-6.284;2023-10-19T00:35:59;24.38;;;11.18;;
42632;SDS011;28261;53.304;-6.284;2023-10-19T00:38:10;19.33;;;9.98;;
42632;SDS011;28261;53.304;-6.284;2023-10-19T00:40:39;23.08;;;10.38;;
42632;SDS011;28261;53.304;-6.284;2023-10-19T00:42:49;22.98;;;10.07;;
42632;SDS011;28261;53.304;-6.284;2023-10-19T00:44:56;26.30;;;11.20;;
42632;SDS011;28261;53.304;-6.284;2023-10-19T00:47:06;18.67;;;9.05;;
42632;SDS011;28261;53.304;-6.284;2023-10-19T00:49:15;19.77;;;9.02;;
42632;SDS011;28261;53.304;-6.284;2023-10-19T00:51:20;17.58;;;8.45;;
42632;SDS011;28261;53.304;-6.284;2023-10-19T00:53:43;15.82;;;5.68;;
42632;SDS011;28261;53.304;-6.284;2023-10-19T00:55:50;13.88;;;6.20;;
42632;SDS011;28261;53.304;-6.284;2023-10-19T00:57:55;18.63;;;6.18;;
42632;SDS011;28261;53.304;-6.284;2023-10-19T01:00:00;17.33;;;6.07;;
42632;SDS011;28261;53.304;-6.284;2023-10-19T01:02:13;12.95;;;5.38;;
42632;SDS011;28261;53.304;-6.284;2023-10-19T01:04:22;18.52;;;5.75;;
42632;SDS011;28261;53.304;-6.284;2023-10-19T01:06:26;12.88;;;5.47;;
42632;SDS011;28261;53.304;-6.284;2023-10-19T01:08:34;16.20;;;5.13;;
42632;SDS011;28261;53.304;-6.284;2023-10-19T01:10:43;11.27;;;4.97;;
42632;SDS011;28261;53.304;-6.284;2023-10-19T01:12:50;15.63;;;5.25;;
42632;SDS011;28261;53.304;-6.284;2023-10-19T01:15:00;14.15;;;5.90;;
42632;SDS011;28261;53.304;-6.284;2023-10-19T01:17:09;12.45;;;5.55;;
42632;SDS011;28261;53.304;-6.284;2023-10-19T01:19:14;15.38;;;5.28;;
42632;SDS011;28261;53.304;-6.284;2023-10-19T01:21:21;16.92;;;5.32;;
42632;SDS011;28261;53.304;-6.284;2023-10-19T01:23:30;18.38;;;5.20;;
42632;SDS011;28261;53.304;-6.284;2023-10-19T01:25:42;13.13;;;4.70;;
42632;SDS011;28261;53.304;-6.284;2023-10-19T01:27:52;7.20;;;4.30;;
42632;SDS011;28261;53.304;-6.284;2023-10-19T01:30:00;9.50;;;4.18;;
42632;SDS011;28261;53.304;-6.284;2023-10-19T01:32:06;16.05;;;4.82;;
42632;SDS011;28261;53.304;-6.284;2023-10-19T01:34:10;11.30;;;4.68;;
42632;SDS011;28261;53.304;-6.284;2023-10-19T01:38:22;15.95;;;4.63;;
42632;SDS011;28261;53.304;-6.284;2023-10-19T01:40:28;10.65;;;4.63;;
42632;SDS011;28261;53.304;-6.284;2023-10-19T01:42:36;11.77;;;4.63;;
42632;SDS011;28261;53.304;-6.284;2023-10-19T01:44:40;13.50;;;4.35;;
42632;SDS011;28261;53.304;-6.284;2023-10-19T01:46:42;8.52;;;4.10;;
42632;SDS011;28261;53.304;-6.284;2023-10-19T01:48:48;12.32;;;4.40;;
42632;SDS011;28261;53.304;-6.284;2023-10-19T01:50:56;9.55;;;4.32;;
42632;SDS011;28261;53.304;-6.284;2023-10-19T01:52:59;11.82;;;4.85;;
42632;SDS011;28261;53.304;-6.284;2023-10-19T01:55:04;14.02;;;5.68;;
42632;SDS011;28261;53.304;-6.284;2023-10-19T01:57:12;12.50;;;4.45;;
42632;SDS011;28261;53.304;-6.284;2023-10-19T01:59:16;14.32;;;4.35;;
42632;SDS011;28261;53.304;-6.284;2023-10-19T02:01:20;13.07;;;5.18;;
42632;SDS011;28261;53.304;-6.284;2023-10-19T02:03:31;16.33;;;5.38;;
42632;SDS011;28261;53.304;-6.284;2023-10-19T02:05:35;9.63;;;4.43;;
42632;SDS011;28261;53.304;-6.284;2023-10-19T02:07:43;16.13;;;4.95;;
42632;SDS011;28261;53.304;-6.284;2023-10-19T02:09:48;11.43;;;4.43;;
42632;SDS011;28261;53.304;-6.284;2023-10-19T02:11:52;12.25;;;4.93;;
42632;SDS011;28261;53.304;-6.284;2023-10-19T02:14:00;9.35;;;4.60;;
42632;SDS011;28261;53.304;-6.284;2023-10-19T02:16:06;11.75;;;4.80;;
42632;SDS011;28261;53.304;-6.284;2023-10-19T02:18:11;10.43;;;4.40;;
42632;SDS011;28261;53.304;-6.284;2023-10-19T02:20:14;10.75;;;5.15;;
42632;SDS011;28261;53.304;-6.284;2023-10-19T02:22:40;10.52;;;4.47;;
42632;SDS011;28261;53.304;-6.284;2023-10-19T02:26:49;8.77;;;3.42;;
42632;SDS011;28261;53.304;-6.284;2023-10-19T02:28:53;9.35;;;3.95;;
42632;SDS011;28261;53.304;-6.284;2023-10-19T02:31:00;11.57;;;4.60;;
42632;SDS011;28261;53.304;-6.284;2023-10-19T02:33:13;8.07;;;3.67;;
42632;SDS011;28261;53.304;-6.284;2023-10-19T02:35:17;8.05;;;4.25;;
42632;SDS011;28261;53.304;-6.284;2023-10-19T02:37:20;11.85;;;4.47;;
42632;SDS011;28261;53.304;-6.284;2023-10-19T02:39:27;14.15;;;4.57;;
42632;SDS011;28261;53.304;-6.284;2023-10-19T02:41:30;11.80;;;4.85;;
42632;SDS011;28261;53.304;-6.284;2023-10-19T02:43:37;7.85;;;4.78;;
42632;SDS011;28261;53.304;-6.284;2023-10-19T02:45:40;13.60;;;4.70;;
42632;SDS011;28261;53.304;-6.284;2023-10-19T02:47:51;10.20;;;4.60;;
42632;SDS011;28261;53.304;-6.284;2023-10-19T02:49:54;11.23;;;4.35;;
42632;SDS011;28261;53.304;-6.284;2023-10-19T02:52:00;11.43;;;4.40;;
42632;SDS011;28261;53.304;-6.284;2023-10-19T02:54:07;12.52;;;4.95;;
42632;SDS011;28261;53.304;-6.284;2023-10-19T02:56:19;9.32;;;4.07;;
42632;SDS011;28261;53.304;-6.284;2023-10-19T02:58:22;11.48;;;4.30;;
42632;SDS011;28261;53.304;-6.284;2023-10-19T03:00:26;13.18;;;5.05;;
42632;SDS011;28261;53.304;-6.284;2023-10-19T03:02:35;11.95;;;5.30;;
42632;SDS011;28261;53.304;-6.284;2023-10-19T03:04:42;13.82;;;4.95;;
42632;SDS011;28261;53.304;-6.284;2023-10-19T03:06:47;10.18;;;5.13;;
42632;SDS011;28261;53.304;-6.284;2023-10-19T03:08:51;13.98;;;5.20;;
42632;SDS011;28261;53.304;-6.284;2023-10-19T03:10:59;12.70;;;5.63;;
42632;SDS011;28261;53.304;-6.284;2023-10-19T03:13:07;9.00;;;4.18;;
42632;SDS011;28261;53.304;-6.284;2023-10-19T03:15:10;11.80;;;4.57;;
42632;SDS011;28261;53.304;-6.284;2023-10-19T03:17:16;12.13;;;4.72;;
42632;SDS011;28261;53.304;-6.284;2023-10-19T03:19:19;14.43;;;5.22;;
42632;SDS011;28261;53.304;-6.284;2023-10-19T03:21:25;14.75;;;5.30;;
42632;SDS011;28261;53.304;-6.284;2023-10-19T03:23:30;8.57;;;4.43;;
42632;SDS011;28261;53.304;-6.284;2023-10-19T03:25:36;11.27;;;5.00;;
42632;SDS011;28261;53.304;-6.284;2023-10-19T03:27:56;12.50;;;5.05;;
42632;SDS011;28261;53.304;-6.284;2023-10-19T03:30:06;12.57;;;4.80;;
42632;SDS011;28261;53.304;-6.284;2023-10-19T03:32:16;18.23;;;4.95;;
42632;SDS011;28261;53.304;-6.284;2023-10-19T03:34:21;15.63;;;4.57;;
42632;SDS011;28261;53.304;-6.284;2023-10-19T03:38:30;11.75;;;4.38;;
42632;SDS011;28261;53.304;-6.284;2023-10-19T03:40:39;11.40;;;4.80;;
42632;SDS011;28261;53.304;-6.284;2023-10-19T03:42:43;11.32;;;5.05;;
42632;SDS011;28261;53.304;-6.284;2023-10-19T03:44:48;11.32;;;4.43;;
42632;SDS011;28261;53.304;-6.284;2023-10-19T03:46:56;11.45;;;4.72;;
42632;SDS011;28261;53.304;-6.284;2023-10-19T03:49:03;10.05;;;4.32;;
42632;SDS011;28261;53.304;-6.284;2023-10-19T03:51:14;14.05;;;4.63;;
42632;SDS011;28261;53.304;-6.284;2023-10-19T03:53:21;11.38;;;4.88;;
42632;SDS011;28261;53.304;-6.284;2023-10-19T03:55:25;10.85;;;4.18;;
42632;SDS011;28261;53.304;-6.284;2023-10-19T03:57:31;12.23;;;4.38;;
42632;SDS011;28261;53.304;-6.284;2023-10-19T03:59:37;11.45;;;4.75;;
42632;SDS011;28261;53.304;-6.284;2023-10-19T04:01:41;12.02;;;4.53;;
42632;SDS011;28261;53.304;-6.284;2023-10-19T04:03:46;10.15;;;4.75;;
42632;SDS011;28261;53.304;-6.284;2023-10-19T04:05:51;11.23;;;4.95;;
42632;SDS011;28261;53.304;-6.284;2023-10-19T04:07:55;12.77;;;4.95;;
42632;SDS011;28261;53.304;-6.284;2023-10-19T04:10:01;9.32;;;4.60;;
42632;SDS011;28261;53.304;-6.284;2023-10-19T04:12:32;12.40;;;4.82;;
42632;SDS011;28261;53.304;-6.284;2023-10-19T04:14:37;8.82;;;4.78;;
42632;SDS011;28261;53.304;-6.284;2023-10-19T04:16:42;12.10;;;4.72;;
42632;SDS011;28261;53.304;-6.284;2023-10-19T04:20:51;8.75;;;4.22;;
42632;SDS011;28261;53.304;-6.284;2023-10-19T04:22:57;9.05;;;4.45;;
42632;SDS011;28261;53.304;-6.284;2023-10-19T04:25:10;10.52;;;4.63;;
42632;SDS011;28261;53.304;-6.284;2023-10-19T04:27:15;11.23;;;4.70;;
42632;SDS011;28261;53.304;-6.284;2023-10-19T04:29:19;11.40;;;4.57;;
42632;SDS011;28261;53.304;-6.284;2023-10-19T04:31:29;12.00;;;4.45;;
42632;SDS011;28261;53.304;-6.284;2023-10-19T04:33:33;11.80;;;4.90;;
42632;SDS011;28261;53.304;-6.284;2023-10-19T04:35:38;8.52;;;3.90;;
42632;SDS011;28261;53.304;-6.284;2023-10-19T04:37:43;10.90;;;4.82;;
42632;SDS011;28261;53.304;-6.284;2023-10-19T04:39:48;9.23;;;4.43;;
42632;SDS011;28261;53.304;-6.284;2023-10-19T04:41:54;11.30;;;4.53;;
42632;SDS011;28261;53.304;-6.284;2023-10-19T04:43:58;10.07;;;5.03;;
42632;SDS011;28261;53.304;-6.284;2023-10-19T04:46:09;10.88;;;4.40;;
42632;SDS011;28261;53.304;-6.284;2023-10-19T04:48:14;10.65;;;4.35;;
42632;SDS011;28261;53.304;-6.284;2023-10-19T04:50:18;8.98;;;4.03;;
42632;SDS011;28261;53.304;-6.284;2023-10-19T04:52:22;9.43;;;4.00;;
42632;SDS011;28261;53.304;-6.284;2023-10-19T04:54:26;8.55;;;4.20;;
42632;SDS011;28261;53.304;-6.284;2023-10-19T04:56:31;7.78;;;3.58;;
42632;SDS011;28261;53.304;-6.284;2023-10-19T04:58:36;12.40;;;4.18;;
42632;SDS011;28261;53.304;-6.284;2023-10-19T05:00:40;8.05;;;4.20;;
42632;SDS011;28261;53.304;-6.284;2023-10-19T05:04:51;8.20;;;3.28;;
42632;SDS011;28261;53.304;-6.284;2023-10-19T05:06:55;7.15;;;2.72;;
42632;SDS011;28261;53.304;-6.284;2023-10-19T05:09:00;6.93;;;2.92;;
42632;SDS011;28261;53.304;-6.284;2023-10-19T05:11:05;6.32;;;3.03;;
42632;SDS011;28261;53.304;-6.284;2023-10-19T05:13:09;6.18;;;3.72;;
42632;SDS011;28261;53.304;-6.284;2023-10-19T05:15:14;5.13;;;2.00;;
42632;SDS011;28261;53.304;-6.284;2023-10-19T05:17:18;4.63;;;1.80;;
42632;SDS011;28261;53.304;-6.284;2023-10-19T05:19:23;5.68;;;2.63;;
42632;SDS011;28261;53.304;-6.284;2023-10-19T05:21:26;5.65;;;2.63;;
42632;SDS011;28261;53.304;-6.284;2023-10-19T05:23:32;6.85;;;2.30;;
42632;SDS011;28261;53.304;-6.284;2023-10-19T05:25:36;4.45;;;2.00;;
42632;SDS011;28261;53.304;-6.284;2023-10-19T05:27:40;7.32;;;1.85;;
42632;SDS011;28261;53.304;-6.284;2023-10-19T05:29:47;5.00;;;2.42;;
42632;SDS011;28261;53.304;-6.284;2023-10-19T05:31:54;6.20;;;2.22;;
42632;SDS011;28261;53.304;-6.284;2023-10-19T05:34:00;5.95;;;2.80;;
42632;SDS011;28261;53.304;-6.284;2023-10-19T05:36:04;7.65;;;2.72;;
42632;SDS011;28261;53.304;-6.284;2023-10-19T05:38:09;6.05;;;2.53;;
42632;SDS011;28261;53.304;-6.284;2023-10-19T05:40:13;6.00;;;2.90;;
42632;SDS011;28261;53.304;-6.284;2023-10-19T05:42:16;6.97;;;2.88;;
42632;SDS011;28261;53.304;-6.284;2023-10-19T05:44:21;8.23;;;3.13;;
42632;SDS011;28261;53.304;-6.284;2023-10-19T05:46:27;9.50;;;2.72;;
42632;SDS011;28261;53.304;-6.284;2023-10-19T05:48:33;9.25;;;2.80;;
42632;SDS011;28261;53.304;-6.284;2023-10-19T05:50:36;8.07;;;3.20;;
42632;SDS011;28261;53.304;-6.284;2023-10-19T05:52:41;11.88;;;3.40;;
42632;SDS011;28261;53.304;-6.284;2023-10-19T05:54:45;9.88;;;3.42;;
42632;SDS011;28261;53.304;-6.284;2023-10-19T05:56:49;9.25;;;3.10;;
42632;SDS011;28261;53.304;-6.284;2023-10-19T05:58:54;9.35;;;3.78;;
42632;SDS011;28261;53.304;-6.284;2023-10-19T06:00:58;9.32;;;3.53;;
42632;SDS011;28261;53.304;-6.284;2023-10-19T06:03:02;10.98;;;3.10;;
42632;SDS011;28261;53.304;-6.284;2023-10-19T06:05:09;9.57;;;3.65;;
42632;SDS011;28261;53.304;-6.284;2023-10-19T06:07:13;9.80;;;3.92;;
42632;SDS011;28261;53.304;-6.284;2023-10-19T06:09:17;9.90;;;3.70;;
42632;SDS011;28261;53.304;-6.284;2023-10-19T06:11:23;10.63;;;2.80;;
42632;SDS011;28261;53.304;-6.284;2023-10-19T06:13:26;8.82;;;2.85;;
42632;SDS011;28261;53.304;-6.284;2023-10-19T06:15:31;7.88;;;2.92;;
42632;SDS011;28261;53.304;-6.284;2023-10-19T06:17:36;10.25;;;3.17;;
42632;SDS011;28261;53.304;-6.284;2023-10-19T06:19:39;7.28;;;2.90;;
42632;SDS011;28261;53.304;-6.284;2023-10-19T06:21:45;10.98;;;2.90;;
42632;SDS011;28261;53.304;-6.284;2023-10-19T06:23:49;7.63;;;2.72;;
42632;SDS011;28261;53.304;-6.284;2023-10-19T06:25:55;8.15;;;2.85;;
42632;SDS011;28261;53.304;-6.284;2023-10-19T06:27:59;10.35;;;3.65;;
42632;SDS011;28261;53.304;-6.284;2023-10-19T06:30:04;16.48;;;2.97;;
42632;SDS011;28261;53.304;-6.284;2023-10-19T06:32:09;11.00;;;3.42;;
42632;SDS011;28261;53.304;-6.284;2023-10-19T06:34:15;9.75;;;3.83;;
42632;SDS011;28261;53.304;-6.284;2023-10-19T06:36:20;10.25;;;3.00;;
42632;SDS011;28261;53.304;-6.284;2023-10-19T06:38:26;9.25;;;2.60;;
42632;SDS011;28261;53.304;-6.284;2023-10-19T06:40:30;10.05;;;2.53;;
42632;SDS011;28261;53.304;-6.284;2023-10-19T06:42:38;9.32;;;2.50;;
42632;SDS011;28261;53.304;-6.284;2023-10-19T06:44:41;8.63;;;3.00;;
42632;SDS011;28261;53.304;-6.284;2023-10-19T06:46:46;9.90;;;2.67;;
42632;SDS011;28261;53.304;-6.284;2023-10-19T06:48:50;8.07;;;2.65;;
42632;SDS011;28261;53.304;-6.284;2023-10-19T06:50:57;7.20;;;2.60;;
42632;SDS011;28261;53.304;-6.284;2023-10-19T06:53:02;12.68;;;3.40;;
42632;SDS011;28261;53.304;-6.284;2023-10-19T06:55:09;8.73;;;2.78;;
42632;SDS011;28261;53.304;-6.284;2023-10-19T06:57:18;6.43;;;3.63;;
42632;SDS011;28261;53.304;-6.284;2023-10-19T06:59:22;12.38;;;2.58;;
42632;SDS011;28261;53.304;-6.284;2023-10-19T07:01:26;8.95;;;3.60;;
42632;SDS011;28261;53.304;-6.284;2023-10-19T07:03:33;11.30;;;3.08;;
42632;SDS011;28261;53.304;-6.284;2023-10-19T07:05:37;7.18;;;3.17;;
42632;SDS011;28261;53.304;-6.284;2023-10-19T07:07:42;8.63;;;2.90;;
42632;SDS011;28261;53.304;-6.284;2023-10-19T07:09:47;6.80;;;2.60;;
42632;SDS011;28261;53.304;-6.284;2023-10-19T07:11:52;6.82;;;2.08;;
42632;SDS011;28261;53.304;-6.284;2023-10-19T07:13:57;5.28;;;2.13;;
42632;SDS011;28261;53.304;-6.284;2023-10-19T07:16:00;4.90;;;1.90;;
42632;SDS011;28261;53.304;-6.284;2023-10-19T07:18:06;5.15;;;1.92;;
42632;SDS011;28261;53.304;-6.284;2023-10-19T07:20:10;4.82;;;1.92;;
42632;SDS011;28261;53.304;-6.284;2023-10-19T07:22:27;4.45;;;1.92;;
42632;SDS011;28261;53.304;-6.284;2023-10-19T07:24:31;6.38;;;2.45;;
42632;SDS011;28261;53.304;-6.284;2023-10-19T07:26:38;9.10;;;2.22;;
42632;SDS011;28261;53.304;-6.284;2023-10-19T07:28:54;4.20;;;2.13;;
42632;SDS011;28261;53.304;-6.284;2023-10-19T07:30:59;4.93;;;1.77;;
42632;SDS011;28261;53.304;-6.284;2023-10-19T07:35:07;5.40;;;1.90;;
42632;SDS011;28261;53.304;-6.284;2023-10-19T07:39:17;5.72;;;2.70;;
42632;SDS011;28261;53.304;-6.284;2023-10-19T07:41:22;9.15;;;3.60;;
42632;SDS011;28261;53.304;-6.284;2023-10-19T07:43:26;9.32;;;3.58;;
42632;SDS011;28261;53.304;-6.284;2023-10-19T07:45:31;10.20;;;3.45;;
42632;SDS011;28261;53.304;-6.284;2023-10-19T07:47:36;15.75;;;4.38;;
42632;SDS011;28261;53.304;-6.284;2023-10-19T07:49:41;12.10;;;3.45;;
42632;SDS011;28261;53.304;-6.284;2023-10-19T07:51:45;18.08;;;4.63;;
42632;SDS011;28261;53.304;-6.284;2023-10-19T07:53:52;22.52;;;5.07;;
42632;SDS011;28261;53.304;-6.284;2023-10-19T07:55:56;29.17;;;5.15;;
42632;SDS011;28261;53.304;-6.284;2023-10-19T07:58:00;17.52;;;4.68;;
42632;SDS011;28261;53.304;-6.284;2023-10-19T08:02:12;9.02;;;2.80;;
42632;SDS011;28261;53.304;-6.284;2023-10-19T08:04:15;11.02;;;3.47;;
42632;SDS011;28261;53.304;-6.284;2023-10-19T08:06:19;8.93;;;3.05;;
42632;SDS011;28261;53.304;-6.284;2023-10-19T08:08:23;16.75;;;4.85;;
42632;SDS011;28261;53.304;-6.284;2023-10-19T08:10:27;13.35;;;3.53;;
42632;SDS011;28261;53.304;-6.284;2023-10-19T08:12:34;14.02;;;4.18;;
42632;SDS011;28261;53.304;-6.284;2023-10-19T08:14:43;13.70;;;3.75;;
42632;SDS011;28261;53.304;-6.284;2023-10-19T08:16:48;11.68;;;3.50;;
42632;SDS011;28261;53.304;-6.284;2023-10-19T08:18:54;6.43;;;3.17;;
42632;SDS011;28261;53.304;-6.284;2023-10-19T08:20:58;10.40;;;2.90;;
42632;SDS011;28261;53.304;-6.284;2023-10-19T08:23:02;10.15;;;3.70;;
42632;SDS011;28261;53.304;-6.284;2023-10-19T08:25:08;9.23;;;2.95;;
42632;SDS011;28261;53.304;-6.284;2023-10-19T08:27:14;8.73;;;2.63;;
42632;SDS011;28261;53.304;-6.284;2023-10-19T08:29:19;8.40;;;2.90;;
42632;SDS011;28261;53.304;-6.284;2023-10-19T08:31:22;5.82;;;2.40;;
42632;SDS011;28261;53.304;-6.284;2023-10-19T08:33:26;9.15;;;3.05;;
42632;SDS011;28261;53.304;-6.284;2023-10-19T08:35:34;9.25;;;3.10;;
42632;SDS011;28261;53.304;-6.284;2023-10-19T08:37:39;9.77;;;2.90;;
42632;SDS011;28261;53.304;-6.284;2023-10-19T08:39:43;7.57;;;2.90;;
42632;SDS011;28261;53.304;-6.284;2023-10-19T08:41:46;8.10;;;3.13;;
42632;SDS011;28261;53.304;-6.284;2023-10-19T08:43:55;7.53;;;2.88;;
42632;SDS011;28261;53.304;-6.284;2023-10-19T08:45:59;10.05;;;2.70;;
42632;SDS011;28261;53.304;-6.284;2023-10-19T08:48:04;6.75;;;2.63;;
42632;SDS011;28261;53.304;-6.284;2023-10-19T08:50:10;6.85;;;2.53;;
42632;SDS011;28261;53.304;-6.284;2023-10-19T08:52:18;5.57;;;2.40;;
42632;SDS011;28261;53.304;-6.284;2023-10-19T08:54:24;6.82;;;2.35;;
42632;SDS011;28261;53.304;-6.284;2023-10-19T08:58:33;6.18;;;2.30;;
42632;SDS011;28261;53.304;-6.284;2023-10-19T09:02:49;3.17;;;1.50;;
42632;SDS011;28261;53.304;-6.284;2023-10-19T09:04:54;6.38;;;2.47;;
42632;SDS011;28261;53.304;-6.284;2023-10-19T09:07:02;3.88;;;1.60;;
42632;SDS011;28261;53.304;-6.284;2023-10-19T09:09:13;3.63;;;1.65;;
42632;SDS011;28261;53.304;-6.284;2023-10-19T09:11:21;5.88;;;1.83;;
42632;SDS011;28261;53.304;-6.284;2023-10-19T09:13:26;3.97;;;1.38;;
42632;SDS011;28261;53.304;-6.284;2023-10-19T09:15:30;4.50;;;1.65;;
42632;SDS011;28261;53.304;-6.284;2023-10-19T09:17:35;3.13;;;1.80;;
42632;SDS011;28261;53.304;-6.284;2023-10-19T09:19:39;3.70;;;1.73;;
42632;SDS011;28261;53.304;-6.284;2023-10-19T09:21:45;2.42;;;1.40;;
42632;SDS011;28261;53.304;-6.284;2023-10-19T09:23:49;2.22;;;1.17;;
42632;SDS011;28261;53.304;-6.284;2023-10-19T09:25:56;2.80;;;1.17;;
42632;SDS011;28261;53.304;-6.284;2023-10-19T09:28:02;3.83;;;1.67;;
42632;SDS011;28261;53.304;-6.284;2023-10-19T09:30:07;2.83;;;1.63;;
42632;SDS011;28261;53.304;-6.284;2023-10-19T09:32:12;1.98;;;1.20;;
42632;SDS011;28261;53.304;-6.284;2023-10-19T09:34:17;3.63;;;1.52;;
42632;SDS011;28261;53.304;-6.284;2023-10-19T09:36:22;1.90;;;1.45;;
42632;SDS011;28261;53.304;-6.284;2023-10-19T09:38:29;2.13;;;1.25;;
42632;SDS011;28261;53.304;-6.284;2023-10-19T09:40:35;2.72;;;1.30;;
42632;SDS011;28261;53.304;-6.284;2023-10-19T09:42:41;2.90;;;1.80;;
42632;SDS011;28261;53.304;-6.284;2023-10-19T09:44:52;2.08;;;1.20;;
42632;SDS011;28261;53.304;-6.284;2023-10-19T09:49:14;2.03;;;0.90;;
42632;SDS011;28261;53.304;-6.284;2023-10-19T09:51:18;2.10;;;1.15;;
42632;SDS011;28261;53.304;-6.284;2023-10-19T09:53:23;2.30;;;1.23;;
42632;SDS011;28261;53.304;-6.284;2023-10-19T09:55:31;2.25;;;1.30;;
42632;SDS011;28261;53.304;-6.284;2023-10-19T09:57:48;1.40;;;1.00;;
42632;SDS011;28261;53.304;-6.284;2023-10-19T09:59:56;1.98;;;1.27;;
42632;SDS011;28261;53.304;-6.284;2023-10-19T10:02:12;2.10;;;0.98;;
42632;SDS011;28261;53.304;-6.284;2023-10-19T10:04:30;2.47;;;1.20;;
42632;SDS011;28261;53.304;-6.284;2023-10-19T10:09:03;2.38;;;1.13;;
42632;SDS011;28261;53.304;-6.284;2023-10-19T10:11:20;3.58;;;1.40;;
42632;SDS011;28261;53.304;-6.284;2023-10-19T10:13:39;2.10;;;1.20;;
42632;SDS011;28261;53.304;-6.284;2023-10-19T10:15:43;2.25;;;1.35;;
42632;SDS011;28261;53.304;-6.284;2023-10-19T10:17:51;4.70;;;1.42;;
42632;SDS011;28261;53.304;-6.284;2023-10-19T10:22:37;3.25;;;1.20;;
42632;SDS011;28261;53.304;-6.284;2023-10-19T10:24:41;3.78;;;1.50;;
42632;SDS011;28261;53.304;-6.284;2023-10-19T10:29:13;4.00;;;1.00;;
42632;SDS011;28261;53.304;-6.284;2023-10-19T10:31:21;2.67;;;1.75;;
42632;SDS011;28261;53.304;-6.284;2023-10-19T10:33:38;4.10;;;1.67;;
42632;SDS011;28261;53.304;-6.284;2023-10-19T10:35:55;2.90;;;1.73;;
42632;SDS011;28261;53.304;-6.284;2023-10-19T10:37:59;2.15;;;0.90;;
42632;SDS011;28261;53.304;-6.284;2023-10-19T10:40:03;2.97;;;1.60;;
42632;SDS011;28261;53.304;-6.284;2023-10-19T10:42:09;3.67;;;1.23;;
42632;SDS011;28261;53.304;-6.284;2023-10-19T10:44:14;2.40;;;1.02;;
42632;SDS011;28261;53.304;-6.284;2023-10-19T10:46:18;2.22;;;1.20;;
42632;SDS011;28261;53.304;-6.284;2023-10-19T10:48:21;3.22;;;1.38;;
42632;SDS011;28261;53.304;-6.284;2023-10-19T10:50:25;3.13;;;1.63;;
42632;SDS011;28261;53.304;-6.284;2023-10-19T10:52:30;2.53;;;1.50;;
42632;SDS011;28261;53.304;-6.284;2023-10-19T10:54:35;3.78;;;1.80;;
42632;SDS011;28261;53.304;-6.284;2023-10-19T10:56:39;3.08;;;1.50;;
42632;SDS011;28261;53.304;-6.284;2023-10-19T10:58:44;2.78;;;1.13;;
42632;SDS011;28261;53.304;-6.284;2023-10-19T11:00:49;3.35;;;1.10;;
42632;SDS011;28261;53.304;-6.284;2023-10-19T11:03:01;3.28;;;1.17;;
42632;SDS011;28261;53.304;-6.284;2023-10-19T11:05:10;2.78;;;1.05;;
42632;SDS011;28261;53.304;-6.284;2023-10-19T11:07:18;1.48;;;0.80;;
42632;SDS011;28261;53.304;-6.284;2023-10-19T11:09:23;2.30;;;0.80;;
42632;SDS011;28261;53.304;-6.284;2023-10-19T11:11:27;1.38;;;0.90;;
42632;SDS011;28261;53.304;-6.284;2023-10-19T11:13:31;1.58;;;1.08;;
42632;SDS011;28261;53.304;-6.284;2023-10-19T11:15:48;1.08;;;0.60;;
42632;SDS011;28261;53.304;-6.284;2023-10-19T11:17:59;0.93;;;0.50;;
42632;SDS011;28261;53.304;-6.284;2023-10-19T11:20:04;1.85;;;0.50;;
42632;SDS011;28261;53.304;-6.284;2023-10-19T11:22:09;2.17;;;0.80;;
42632;SDS011;28261;53.304;-6.284;2023-10-19T11:24:23;0.50;;;0.40;;
42632;SDS011;28261;53.304;-6.284;2023-10-19T11:26:28;0.90;;;0.50;;
42632;SDS011;28261;53.304;-6.284;2023-10-19T11:28:32;0.82;;;0.40;;
42632;SDS011;28261;53.304;-6.284;2023-10-19T11:30:35;2.78;;;0.60;;
42632;SDS011;28261;53.304;-6.284;2023-10-19T11:32:40;1.05;;;0.60;;
42632;SDS011;28261;53.304;-6.284;2023-10-19T11:34:44;1.05;;;0.50;;
42632;SDS011;28261;53.304;-6.284;2023-10-19T11:36:52;4.90;;;1.42;;
42632;SDS011;28261;53.304;-6.284;2023-10-19T11:38:58;2.88;;;0.73;;
42632;SDS011;28261;53.304;-6.284;2023-10-19T11:41:01;1.63;;;0.47;;
42632;SDS011;28261;53.304;-6.284;2023-10-19T11:43:05;2.47;;;0.60;;
42632;SDS011;28261;53.304;-6.284;2023-10-19T11:45:09;5.00;;;0.68;;
42632;SDS011;28261;53.304;-6.284;2023-10-19T11:47:13;2.15;;;0.60;;
42632;SDS011;28261;53.304;-6.284;2023-10-19T11:49:18;1.40;;;0.75;;
42632;SDS011;28261;53.304;-6.284;2023-10-19T11:51:26;1.90;;;0.60;;
42632;SDS011;28261;53.304;-6.284;2023-10-19T11:53:31;0.55;;;0.30;;
42632;SDS011;28261;53.304;-6.284;2023-10-19T11:55:38;1.80;;;0.70;;
42632;SDS011;28261;53.304;-6.284;2023-10-19T11:57:43;3.15;;;0.68;;
42632;SDS011;28261;53.304;-6.284;2023-10-19T11:59:47;2.55;;;0.45;;
42632;SDS011;28261;53.304;-6.284;2023-10-19T12:01:57;3.65;;;0.70;;
42632;SDS011;28261;53.304;-6.284;2023-10-19T12:04:03;2.22;;;0.57;;
42632;SDS011;28261;53.304;-6.284;2023-10-19T12:06:09;0.38;;;0.35;;
42632;SDS011;28261;53.304;-6.284;2023-10-19T12:08:38;4.95;;;0.60;;
42632;SDS011;28261;53.304;-6.284;2023-10-19T12:10:42;2.17;;;0.50;;
42632;SDS011;28261;53.304;-6.284;2023-10-19T12:12:46;2.67;;;1.13;;
42632;SDS011;28261;53.304;-6.284;2023-10-19T12:15:02;3.05;;;0.80;;
42632;SDS011;28261;53.304;-6.284;2023-10-19T12:17:07;4.57;;;0.60;;
42632;SDS011;28261;53.304;-6.284;2023-10-19T12:19:11;4.10;;;0.70;;
42632;SDS011;28261;53.304;-6.284;2023-10-19T12:21:18;4.63;;;0.77;;
42632;SDS011;28261;53.304;-6.284;2023-10-19T12:23:29;4.95;;;1.30;;
42632;SDS011;28261;53.304;-6.284;2023-10-19T12:25:33;5.63;;;0.70;;
42632;SDS011;28261;53.304;-6.284;2023-10-19T12:27:57;4.53;;;0.77;;
42632;SDS011;28261;53.304;-6.284;2023-10-19T12:30:02;3.70;;;1.15;;
42632;SDS011;28261;53.304;-6.284;2023-10-19T12:32:18;7.78;;;0.98;;
42632;SDS011;28261;53.304;-6.284;2023-10-19T12:34:22;4.85;;;0.90;;
42632;SDS011;28261;53.304;-6.284;2023-10-19T12:36:27;4.85;;;0.80;;
42632;SDS011;28261;53.304;-6.284;2023-10-19T12:38:34;6.05;;;0.90;;
42632;SDS011;28261;53.304;-6.284;2023-10-19T12:40:37;8.93;;;0.80;;
42632;SDS011;28261;53.304;-6.284;2023-10-19T12:42:41;5.15;;;0.88;;
42632;SDS011;28261;53.304;-6.284;2023-10-19T12:44:44;3.85;;;0.93;;
42632;SDS011;28261;53.304;-6.284;2023-10-19T12:46:49;5.90;;;0.55;;
42632;SDS011;28261;53.304;-6.284;2023-10-19T12:48:55;2.72;;;0.73;;
42632;SDS011;28261;53.304;-6.284;2023-10-19T12:50:58;3.97;;;0.77;;
42632;SDS011;28261;53.304;-6.284;2023-10-19T12:53:04;4.53;;;0.70;;
42632;SDS011;28261;53.304;-6.284;2023-10-19T12:55:09;4.03;;;0.80;;
42632;SDS011;28261;53.304;-6.284;2023-10-19T12:57:13;2.75;;;0.95;;